createdAt,value
2022-09-21T00:01:27.915Z,0.57
2022-09-21T00:04:00.029Z,0.50
2022-09-21T00:06:29.081Z,0.60
2022-09-21T00:08:58.099Z,0.60
2022-09-21T00:11:28.037Z,0.70
2022-09-21T00:13:57.764Z,0.50
2022-09-21T00:16:24.896Z,0.50
2022-09-21T00:18:52.246Z,0.60
2022-09-21T00:21:19.682Z,0.57
2022-09-21T00:23:46.723Z,0.50
2022-09-21T00:26:19.941Z,0.50
2022-09-21T00:28:46.896Z,0.40
2022-09-21T00:31:16.486Z,0.60
2022-09-21T00:33:43.769Z,0.50
2022-09-21T00:36:14.994Z,0.60
2022-09-21T00:38:42.058Z,0.53
2022-09-21T00:41:11.067Z,0.50
2022-09-21T00:43:42.765Z,0.50
2022-09-21T00:46:29.437Z,0.60
2022-09-21T00:48:58.066Z,0.60
2022-09-21T00:51:25.918Z,0.40
2022-09-21T00:53:57.827Z,0.83
2022-09-21T00:56:24.840Z,0.50
2022-09-21T00:58:54.896Z,0.50
2022-09-21T01:01:22.224Z,0.50
2022-09-21T01:03:51.544Z,0.50
2022-09-21T01:06:20.591Z,0.50
2022-09-21T01:08:52.834Z,0.57
2022-09-21T01:11:38.127Z,0.60
2022-09-21T01:14:42.659Z,0.50
2022-09-21T01:17:25.593Z,0.43
2022-09-21T01:19:53.153Z,0.40
2022-09-21T01:22:57.130Z,0.40
2022-09-21T01:25:33.131Z,0.50
2022-09-21T01:28:35.509Z,0.50
2022-09-21T01:31:07.338Z,0.50
2022-09-21T01:33:39.816Z,0.50
2022-09-21T01:36:12.131Z,0.60
2022-09-21T01:38:51.830Z,0.50
2022-09-21T01:41:23.576Z,0.40
2022-09-21T01:43:57.660Z,0.50
2022-09-21T01:46:30.599Z,0.40
2022-09-21T01:49:04.820Z,0.43
2022-09-21T01:51:33.825Z,0.40
2022-09-21T01:54:25.819Z,0.50
2022-09-21T01:57:02.263Z,0.50
2022-09-21T01:59:38.882Z,0.40
2022-09-21T02:02:13.697Z,0.50
2022-09-21T02:04:40.765Z,0.50
2022-09-21T02:07:08.198Z,0.57
2022-09-21T02:09:37.346Z,0.50
2022-09-21T02:12:05.564Z,0.40
2022-09-21T02:14:33.551Z,0.50
2022-09-21T02:17:07.545Z,1.27
2022-09-21T02:19:43.882Z,0.50
2022-09-21T02:22:54.929Z,0.50
2022-09-21T02:25:38.034Z,0.80
2022-09-21T02:28:29.710Z,0.60
2022-09-21T02:31:13.945Z,0.60
2022-09-21T02:34:00.498Z,0.60
2022-09-21T02:36:37.379Z,0.50
2022-09-21T02:39:18.450Z,0.50
2022-09-21T02:42:12.433Z,0.47
2022-09-21T02:44:57.750Z,0.60
2022-09-21T02:47:41.665Z,0.80
2022-09-21T02:50:14.938Z,0.50
2022-09-21T02:52:43.489Z,0.60
2022-09-21T02:55:13.330Z,0.50
2022-09-21T02:57:41.619Z,0.50
2022-09-21T03:00:09.238Z,0.43
2022-09-21T03:02:41.857Z,0.60
2022-09-21T03:05:09.482Z,0.50
2022-09-21T03:07:36.650Z,0.57
2022-09-21T03:10:04.562Z,0.50
2022-09-21T03:12:32.725Z,0.50
2022-09-21T03:15:00.231Z,0.50
2022-09-21T03:17:27.829Z,0.50
2022-09-21T03:19:55.302Z,0.50
2022-09-21T03:22:23.075Z,0.60
2022-09-21T03:24:50.306Z,0.50
2022-09-21T03:27:21.841Z,0.50
2022-09-21T03:29:48.747Z,0.50
2022-09-21T03:32:16.207Z,0.60
2022-09-21T03:34:43.060Z,0.63
2022-09-21T03:37:10.781Z,0.60
2022-09-21T03:39:37.649Z,0.50
2022-09-21T03:42:05.015Z,0.50
2022-09-21T03:44:31.818Z,0.60
2022-09-21T03:46:58.647Z,0.70
2022-09-21T03:49:26.226Z,0.83
2022-09-21T03:51:53.082Z,2.63
2022-09-21T03:54:20.479Z,1.50
2022-09-21T03:56:47.399Z,0.97
2022-09-21T03:59:14.576Z,0.60
2022-09-21T04:01:42.471Z,0.80
2022-09-21T04:04:10.328Z,1.03
2022-09-21T04:06:37.181Z,1.13
2022-09-21T04:09:04.150Z,0.70
2022-09-21T04:11:33.347Z,0.80
2022-09-21T04:14:00.254Z,0.73
2022-09-21T04:16:27.739Z,0.80
2022-09-21T04:18:54.855Z,1.00
2022-09-21T04:21:22.383Z,0.70
2022-09-21T04:23:49.978Z,0.93
2022-09-21T04:26:31.423Z,0.93
2022-09-21T04:28:58.425Z,1.90
2022-09-21T04:31:26.877Z,0.97
2022-09-21T04:33:56.145Z,1.90
2022-09-21T04:36:25.202Z,1.13
2022-09-21T04:38:52.449Z,1.40
2022-09-21T04:41:19.373Z,3.30
2022-09-21T04:43:48.145Z,2.50
2022-09-21T04:46:17.224Z,3.47
2022-09-21T04:48:44.515Z,1.93
2022-09-21T04:51:11.888Z,2.00
2022-09-21T04:53:39.918Z,1.50
2022-09-21T04:56:08.527Z,2.00
2022-09-21T04:58:35.713Z,1.70
2022-09-21T05:01:04.392Z,1.30
2022-09-21T05:03:31.377Z,1.70
2022-09-21T05:05:58.742Z,1.70
2022-09-21T05:08:45.768Z,0.97
2022-09-21T05:11:16.034Z,1.93
2022-09-21T05:13:43.407Z,2.30
2022-09-21T05:16:10.338Z,2.80
2022-09-21T05:18:37.389Z,1.70
2022-09-21T05:21:04.783Z,5.73
2022-09-21T05:23:31.950Z,2.50
2022-09-21T05:25:59.983Z,1.47
2022-09-21T05:28:27.333Z,1.90
2022-09-21T05:31:18.596Z,1.10
2022-09-21T05:33:52.237Z,1.33
2022-09-21T05:36:49.657Z,1.37
2022-09-21T05:39:17.003Z,2.50
2022-09-21T05:41:44.154Z,2.50
2022-09-21T05:44:14.462Z,2.77
2022-09-21T05:47:02.370Z,2.70
2022-09-21T05:49:55.164Z,2.70
2022-09-21T05:52:29.396Z,2.37
2022-09-21T05:55:35.327Z,1.60
2022-09-21T05:58:44.045Z,1.90
2022-09-21T06:01:24.616Z,1.37
2022-09-21T06:03:52.775Z,3.17
2022-09-21T06:06:20.006Z,2.63
2022-09-21T06:08:46.860Z,2.87
2022-09-21T06:11:14.030Z,2.63
2022-09-21T06:13:43.857Z,3.20
2022-09-21T06:16:10.702Z,4.03
2022-09-21T06:18:41.220Z,3.17
2022-09-21T06:21:08.666Z,2.10
2022-09-21T06:23:36.050Z,2.30
2022-09-21T06:26:02.909Z,2.10
2022-09-21T06:28:29.948Z,2.40
2022-09-21T06:30:58.469Z,3.73
2022-09-21T06:33:25.725Z,2.00
2022-09-21T06:36:00.106Z,1.90
2022-09-21T06:38:28.150Z,1.67
2022-09-21T06:40:55.311Z,1.53
2022-09-21T06:43:22.535Z,1.00
2022-09-21T06:46:03.163Z,1.47
2022-09-21T06:48:32.941Z,1.60
2022-09-21T06:51:01.343Z,1.20
2022-09-21T06:53:29.715Z,1.37
2022-09-21T06:56:04.478Z,1.30
2022-09-21T06:58:34.336Z,1.17
2022-09-21T07:01:09.277Z,1.03
2022-09-21T07:03:37.353Z,1.20
2022-09-21T07:06:04.482Z,1.30
2022-09-21T07:11:18.173Z,1.00
2022-09-21T07:13:45.523Z,1.40
2022-09-21T07:16:13.305Z,1.20
2022-09-21T07:18:44.376Z,1.20
2022-09-21T07:21:12.062Z,1.10
2022-09-21T07:23:38.956Z,1.13
2022-09-21T07:26:12.399Z,1.23
2022-09-21T07:28:40.052Z,1.20
2022-09-21T07:31:08.907Z,2.03
2022-09-21T07:33:36.689Z,0.90
2022-09-21T07:36:10.151Z,0.93
2022-09-21T07:38:39.859Z,0.97
2022-09-21T07:41:11.647Z,1.20
2022-09-21T07:43:40.186Z,1.27
2022-09-21T07:46:15.108Z,0.83
2022-09-21T07:48:42.571Z,0.93
2022-09-21T07:51:12.107Z,0.80
2022-09-21T07:53:41.362Z,1.00
2022-09-21T07:56:10.744Z,1.10
2022-09-21T07:58:57.121Z,1.50
2022-09-21T08:01:24.438Z,1.30
2022-09-21T08:03:56.869Z,1.37
2022-09-21T08:06:25.646Z,1.67
2022-09-21T08:08:57.439Z,0.93
2022-09-21T08:11:26.060Z,1.20
2022-09-21T08:13:55.064Z,1.10
2022-09-21T08:16:22.872Z,1.20
2022-09-21T08:18:51.173Z,1.10
2022-09-21T08:21:18.586Z,0.90
2022-09-21T08:23:46.022Z,1.07
2022-09-21T08:26:19.387Z,0.70
2022-09-21T08:28:49.306Z,0.97
2022-09-21T08:31:19.000Z,0.70
2022-09-21T08:33:47.210Z,0.47
2022-09-21T08:36:14.101Z,0.50
2022-09-21T08:38:41.262Z,0.93
2022-09-21T08:41:17.699Z,0.50
2022-09-21T08:44:21.447Z,0.80
2022-09-21T08:47:03.875Z,0.60
2022-09-21T08:49:35.190Z,0.50
2022-09-21T08:52:14.318Z,0.70
2022-09-21T08:54:51.354Z,0.60
2022-09-21T08:57:19.399Z,0.60
2022-09-21T08:59:48.599Z,0.60
2022-09-21T09:02:34.395Z,0.50
2022-09-21T09:05:23.131Z,0.60
2022-09-21T09:08:26.303Z,0.80
2022-09-21T09:11:02.093Z,0.50
2022-09-21T09:13:37.035Z,0.50
2022-09-21T09:16:22.169Z,0.70
2022-09-21T09:19:00.434Z,0.73
2022-09-21T09:21:35.551Z,0.50
2022-09-21T09:24:17.226Z,0.50
2022-09-21T09:27:02.816Z,0.50
2022-09-21T09:29:38.618Z,0.50
2022-09-21T09:32:11.025Z,0.60
2022-09-21T09:34:43.915Z,0.70
2022-09-21T09:37:13.545Z,0.50
2022-09-21T09:39:42.498Z,0.60
2022-09-21T09:42:09.266Z,0.50
2022-09-21T09:44:36.048Z,0.60
2022-09-21T09:47:22.913Z,0.60
2022-09-21T09:50:13.161Z,0.60
2022-09-21T09:52:40.667Z,0.80
2022-09-21T09:55:42.411Z,0.60
2022-09-21T09:58:39.567Z,0.60
2022-09-21T10:01:06.908Z,0.90
2022-09-21T10:03:35.942Z,0.60
2022-09-21T10:06:02.776Z,0.50
2022-09-21T10:08:44.670Z,0.60
2022-09-21T10:11:13.796Z,0.60
2022-09-21T10:13:43.343Z,0.60
2022-09-21T10:16:10.225Z,0.60
2022-09-21T10:18:48.060Z,0.67
2022-09-21T10:21:34.615Z,0.60
2022-09-21T10:24:26.628Z,0.60
2022-09-21T10:27:05.184Z,0.60
2022-09-21T10:29:42.599Z,0.40
2022-09-21T10:32:14.597Z,0.50
2022-09-21T10:35:00.116Z,0.50
2022-09-21T10:37:30.159Z,0.50
2022-09-21T10:39:57.298Z,0.47
2022-09-21T10:42:24.267Z,0.60
2022-09-21T10:44:53.475Z,0.50
2022-09-21T10:47:49.420Z,0.50
2022-09-21T10:50:44.862Z,0.53
2022-09-21T10:53:24.949Z,0.57
2022-09-21T10:56:19.066Z,0.50
2022-09-21T10:59:13.657Z,0.50
2022-09-21T11:01:45.787Z,0.60
2022-09-21T11:04:42.808Z,2.30
2022-09-21T11:07:27.354Z,2.60
2022-09-21T11:09:59.156Z,0.93
2022-09-21T11:13:20.122Z,0.80
2022-09-21T11:16:16.195Z,0.53
2022-09-21T11:19:07.715Z,0.90
2022-09-21T11:22:08.386Z,0.57
2022-09-21T11:24:53.319Z,1.63
2022-09-21T11:27:41.810Z,0.50
2022-09-21T11:30:17.491Z,0.50
2022-09-21T11:33:05.529Z,0.50
2022-09-21T11:35:51.058Z,0.80
2022-09-21T11:38:45.918Z,0.50
2022-09-21T11:41:52.005Z,0.50
2022-09-21T11:44:41.014Z,1.73
2022-09-21T11:47:25.739Z,0.50
2022-09-21T11:50:32.948Z,0.50
2022-09-21T11:53:14.414Z,0.50
2022-09-21T11:56:00.557Z,0.70
2022-09-21T11:58:57.789Z,1.10
2022-09-21T12:01:36.918Z,0.90
2022-09-21T12:04:41.858Z,0.53
2022-09-21T12:07:24.467Z,0.80
2022-09-21T12:10:18.771Z,1.40
2022-09-21T12:13:08.900Z,1.33
2022-09-21T12:15:51.914Z,2.73
2022-09-21T12:18:48.240Z,4.80
2022-09-21T12:21:29.015Z,1.10
2022-09-21T12:23:59.607Z,1.00
2022-09-21T12:26:44.974Z,0.70
2022-09-21T12:29:17.543Z,0.60
2022-09-21T12:31:51.396Z,0.83
2022-09-21T12:34:25.121Z,0.60
2022-09-21T12:37:10.436Z,0.67
2022-09-21T12:39:46.311Z,0.80
2022-09-21T12:42:39.159Z,0.70
2022-09-21T12:45:15.158Z,0.77
2022-09-21T12:47:52.593Z,1.20
2022-09-21T12:50:31.600Z,0.80
2022-09-21T12:52:59.219Z,0.60
2022-09-21T12:55:45.511Z,0.70
2022-09-21T12:58:30.994Z,0.50
2022-09-21T13:01:27.106Z,0.60
2022-09-21T13:04:16.256Z,0.90
2022-09-21T13:07:04.469Z,0.60
2022-09-21T13:09:31.979Z,0.80
2022-09-21T13:12:27.694Z,1.40
2022-09-21T13:15:04.973Z,0.70
2022-09-21T13:17:33.326Z,0.90
2022-09-21T13:20:34.538Z,1.30
2022-09-21T13:23:02.476Z,0.80
2022-09-21T13:25:32.755Z,0.50
2022-09-21T13:28:13.550Z,0.50
2022-09-21T13:30:43.387Z,0.70
2022-09-21T13:33:19.007Z,0.63
2022-09-21T13:35:49.038Z,0.57
2022-09-21T13:39:02.714Z,0.60
2022-09-21T13:41:51.760Z,0.50
2022-09-21T13:44:42.558Z,0.60
2022-09-21T13:47:12.125Z,0.60
2022-09-21T13:49:53.277Z,0.50
2022-09-21T13:52:28.953Z,0.40
2022-09-21T13:55:27.665Z,0.43
2022-09-21T13:57:56.938Z,0.40
2022-09-21T14:00:23.834Z,0.47
2022-09-21T14:02:50.841Z,0.40
2022-09-21T14:05:35.833Z,0.50
2022-09-21T14:08:07.671Z,0.50
2022-09-21T14:10:38.020Z,0.40
2022-09-21T14:13:23.129Z,0.50
2022-09-21T14:15:50.633Z,0.50
2022-09-21T14:18:21.390Z,0.80
2022-09-21T14:21:08.215Z,0.40
2022-09-21T14:23:39.599Z,0.50
2022-09-21T14:26:33.272Z,0.50
2022-09-21T14:29:15.794Z,0.50
2022-09-21T14:31:43.531Z,0.53
2022-09-21T14:34:23.226Z,0.50
2022-09-21T14:36:53.615Z,0.40
2022-09-21T14:39:44.115Z,0.50
2022-09-21T14:42:20.096Z,0.40
2022-09-21T14:44:51.398Z,0.40
2022-09-21T14:47:43.589Z,0.60
2022-09-21T14:50:30.040Z,0.50
2022-09-21T14:53:02.759Z,0.50
2022-09-21T14:55:52.598Z,0.43
2022-09-21T14:58:31.447Z,0.60
2022-09-21T15:01:36.106Z,0.40
2022-09-21T15:04:45.286Z,0.50
2022-09-21T15:07:54.959Z,0.50
2022-09-21T15:10:40.490Z,0.50
2022-09-21T15:13:20.166Z,0.40
2022-09-21T15:15:58.901Z,0.50
2022-09-21T15:18:26.195Z,0.50
2022-09-21T15:21:01.531Z,0.50
2022-09-21T15:23:32.440Z,0.50
2022-09-21T15:26:08.070Z,0.50
2022-09-21T15:29:08.484Z,0.60
2022-09-21T15:31:41.549Z,0.50
2022-09-21T15:34:10.839Z,0.43
2022-09-21T15:36:39.918Z,0.50
2022-09-21T15:39:07.095Z,0.47
2022-09-21T15:41:44.851Z,0.53
2022-09-21T15:44:22.782Z,0.50
2022-09-21T15:47:00.388Z,0.50
2022-09-21T15:49:29.717Z,0.50
2022-09-21T15:52:28.227Z,0.60
2022-09-21T15:55:08.966Z,0.50
2022-09-21T15:57:40.413Z,0.40
2022-09-21T16:00:16.295Z,0.60
2022-09-21T16:02:51.999Z,1.00
2022-09-21T16:05:22.490Z,0.40
2022-09-21T16:07:49.711Z,0.50
2022-09-21T16:10:46.046Z,0.60
2022-09-21T16:13:37.019Z,0.50
2022-09-21T16:16:07.683Z,0.50
2022-09-21T16:18:55.216Z,0.50
2022-09-21T16:21:27.697Z,0.70
2022-09-21T16:23:57.546Z,0.50
2022-09-21T16:26:32.558Z,0.50
2022-09-21T16:29:19.409Z,0.53
2022-09-21T16:31:50.216Z,0.60
2022-09-21T16:34:36.987Z,0.60
2022-09-21T16:37:28.154Z,0.70
2022-09-21T16:39:57.170Z,0.60
2022-09-21T16:42:32.783Z,0.50
2022-09-21T16:45:00.987Z,0.80
2022-09-21T16:47:28.871Z,0.80
2022-09-21T16:50:02.675Z,0.80
2022-09-21T16:52:30.342Z,0.70
2022-09-21T16:54:58.736Z,0.60
2022-09-21T16:57:26.654Z,0.60
2022-09-21T16:59:53.888Z,0.70
2022-09-21T17:02:21.052Z,1.00
2022-09-21T17:04:50.808Z,1.60
2022-09-21T17:07:18.727Z,1.27
2022-09-21T17:09:48.259Z,0.80
2022-09-21T17:12:18.066Z,0.73
2022-09-21T17:14:47.132Z,2.07
2022-09-21T17:17:22.734Z,0.70
2022-09-21T17:19:50.938Z,0.80
2022-09-21T17:22:18.854Z,0.80
2022-09-21T17:24:51.792Z,1.50
2022-09-21T17:27:23.626Z,1.87
2022-09-21T17:29:50.817Z,0.60
2022-09-21T17:32:20.650Z,1.10
2022-09-21T17:35:11.743Z,1.00
2022-09-21T17:37:38.524Z,1.00
2022-09-21T17:40:10.614Z,1.40
2022-09-21T17:42:48.650Z,3.90
2022-09-21T17:45:32.575Z,3.20
2022-09-21T17:47:59.707Z,2.77
2022-09-21T17:50:27.950Z,2.47
2022-09-21T17:53:14.550Z,2.47
2022-09-21T17:56:05.307Z,4.20
2022-09-21T17:58:35.166Z,3.50
2022-09-21T18:01:24.691Z,3.20
2022-09-21T18:03:51.902Z,3.53
2022-09-21T18:06:18.902Z,3.30
2022-09-21T18:08:45.999Z,3.57
2022-09-21T18:11:18.458Z,2.70
2022-09-21T18:14:09.558Z,3.30
2022-09-21T18:16:51.683Z,2.53
2022-09-21T18:19:49.488Z,2.53
2022-09-21T18:22:31.580Z,3.17
2022-09-21T18:24:59.006Z,2.03
2022-09-21T18:27:26.089Z,2.70
2022-09-21T18:29:53.239Z,4.17
2022-09-21T18:33:05.619Z,4.33
2022-09-21T18:35:46.709Z,3.93
2022-09-21T18:38:41.646Z,2.60
2022-09-21T18:41:34.071Z,3.00
2022-09-21T18:44:35.014Z,2.80
2022-09-21T18:47:15.675Z,2.37
2022-09-21T18:50:07.762Z,2.27
2022-09-21T18:52:43.586Z,2.77
2022-09-21T18:55:32.841Z,2.57
2022-09-21T18:58:01.089Z,2.67
2022-09-21T19:00:34.806Z,2.40
2022-09-21T19:03:23.624Z,2.30
2022-09-21T19:06:32.644Z,2.20
2022-09-21T19:09:06.394Z,2.50
2022-09-21T19:11:56.669Z,2.30
2022-09-21T19:14:44.689Z,2.20
2022-09-21T19:17:48.991Z,2.10
2022-09-21T19:20:35.356Z,2.27
2022-09-21T19:23:12.098Z,3.90
2022-09-21T19:25:53.449Z,5.77
2022-09-21T19:28:50.754Z,4.17
2022-09-21T19:31:19.298Z,4.30
2022-09-21T19:33:51.523Z,4.83
2022-09-21T19:36:19.780Z,4.70
2022-09-21T19:38:47.151Z,4.63
2022-09-21T19:41:38.175Z,3.60
2022-09-21T19:44:32.640Z,3.87
2022-09-21T19:46:59.385Z,4.07
2022-09-21T19:49:44.437Z,3.10
2022-09-21T19:52:17.051Z,4.30
2022-09-21T19:55:03.212Z,4.07
2022-09-21T19:57:49.098Z,3.07
2022-09-21T20:00:18.138Z,2.33
2022-09-21T20:03:05.737Z,1.40
2022-09-21T20:05:45.774Z,1.53
2022-09-21T20:08:29.733Z,1.33
2022-09-21T20:11:17.795Z,1.40
2022-09-21T20:13:59.891Z,1.30
2022-09-21T20:16:38.799Z,1.40
2022-09-21T20:19:08.707Z,1.30
2022-09-21T20:21:41.491Z,1.60
2022-09-21T20:24:23.920Z,1.37
2022-09-21T20:26:51.821Z,1.27
2022-09-21T20:29:19.994Z,1.40
2022-09-21T20:31:48.955Z,1.30
2022-09-21T20:34:16.045Z,1.40
2022-09-21T20:36:42.837Z,1.20
2022-09-21T20:39:10.205Z,1.30
2022-09-21T20:41:38.038Z,1.40
2022-09-21T20:44:04.989Z,1.10
2022-09-21T20:46:31.899Z,1.20
2022-09-21T20:49:05.386Z,1.30
2022-09-21T20:51:36.114Z,1.50
2022-09-21T20:54:03.985Z,1.60
2022-09-21T20:56:31.330Z,1.10
2022-09-21T20:58:58.325Z,1.20
2022-09-21T21:01:25.414Z,1.00
2022-09-21T21:03:54.520Z,1.20
2022-09-21T21:06:21.374Z,1.13
2022-09-21T21:08:48.189Z,1.13
2022-09-21T21:11:15.028Z,1.07
2022-09-21T21:13:42.555Z,1.00
2022-09-21T21:16:12.338Z,1.10
2022-09-21T21:18:42.730Z,1.10
2022-09-21T21:21:09.846Z,1.30
2022-09-21T21:23:56.918Z,1.30
2022-09-21T21:26:38.298Z,1.70
2022-09-21T21:29:10.736Z,1.30
2022-09-21T21:31:37.728Z,1.37
2022-09-21T21:34:04.567Z,1.30
2022-09-21T21:36:31.927Z,1.50
2022-09-21T21:38:58.959Z,1.63
2022-09-21T21:41:25.910Z,1.13
2022-09-21T21:43:52.708Z,1.33
2022-09-21T21:46:19.825Z,1.07
2022-09-21T21:48:46.847Z,1.07
2022-09-21T21:51:13.708Z,1.17
2022-09-21T21:53:40.877Z,1.17
2022-09-21T21:56:10.358Z,1.70
2022-09-21T21:58:38.087Z,1.40
2022-09-21T22:01:21.355Z,1.63
2022-09-21T22:03:59.223Z,1.30
2022-09-21T22:06:27.463Z,1.63
2022-09-21T22:08:55.562Z,0.93
2022-09-21T22:11:25.076Z,1.40
2022-09-21T22:13:54.131Z,1.20
2022-09-21T22:16:25.874Z,1.20
2022-09-21T22:18:53.310Z,1.10
2022-09-21T22:21:23.387Z,1.53
2022-09-21T22:23:54.029Z,1.30
2022-09-21T22:26:21.982Z,1.63
2022-09-21T22:28:52.262Z,1.30
2022-09-21T22:31:21.631Z,1.77
2022-09-21T22:33:49.031Z,1.40
2022-09-21T22:36:18.655Z,1.20
2022-09-21T22:38:46.786Z,1.50
2022-09-21T22:41:18.805Z,1.43
2022-09-21T22:43:47.638Z,1.27
2022-09-21T22:46:18.273Z,1.00
2022-09-21T22:48:45.889Z,1.20
2022-09-21T22:51:14.223Z,1.07
2022-09-21T22:53:41.345Z,1.10
2022-09-21T22:56:10.581Z,1.37
2022-09-21T22:58:40.386Z,1.10
2022-09-21T23:01:12.787Z,1.10
2022-09-21T23:03:40.957Z,1.07
2022-09-21T23:06:10.231Z,1.20
2022-09-21T23:08:37.774Z,1.00
2022-09-21T23:11:16.586Z,1.10
2022-09-21T23:13:43.530Z,1.07
2022-09-21T23:16:12.700Z,0.90
2022-09-21T23:18:40.238Z,1.10
2022-09-21T23:21:11.083Z,1.07
2022-09-21T23:23:38.338Z,0.80
2022-09-21T23:26:17.995Z,0.97
2022-09-21T23:28:51.046Z,1.00
2022-09-21T23:31:18.610Z,1.03
2022-09-21T23:33:48.260Z,0.83
2022-09-21T23:36:17.063Z,0.90
2022-09-21T23:38:45.611Z,1.17
2022-09-21T23:41:17.939Z,0.80
2022-09-21T23:43:45.563Z,0.70
2022-09-21T23:46:15.216Z,0.80
2022-09-21T23:48:43.146Z,0.83
2022-09-21T23:51:11.316Z,0.80
2022-09-21T23:53:38.270Z,0.90
2022-09-21T23:56:07.003Z,0.80
2022-09-21T23:58:34.150Z,1.10
